Maquoketa, IA (52060)

8:54 PM CDT on April 29, 2017 (GMT -0500)
South Main Street | | Change Station

Elev 0 ft 42.07 °N, 90.67 °W | Updated 2 minutes ago

Overcast
Overcast
41.5 °F
Feels Like 37 °F
N
6.2
Wind Variable Wind from NE
Gusts 27.3 mph

Today
High -- | Low -- °F
--% Chance of Precip.
Yesterday
High -- | Low -- °F
Precip. -- in
Pressure 30.04 in
Visibility 10.0 miles
Clouds Overcast 4300 ft
Windchill 37 °F
Dew Point 39 °F
Humidity 91%
Rainfall 0.25 in
Snow Depth Not available.
6:00 AM 7:59 PM
Waxing Crescent, 18% visible
METAR KDBQ 300053Z 05021G31KT 10SM OVC043 05/01 A3001 RMK AO2 PK WND 06031/0031 SLP170 T00500011
Pressure 30.04 in
Visibility 10.0 miles
Clouds Overcast 4300 ft
Windchill 37 °F
Dew Point 39 °F
Humidity 91%
Rainfall 0.25 in
Snow Depth Not available.
6:00 AM 7:59 PM
Waxing Crescent, 18% visible
METAR KDBQ 300053Z 05021G31KT 10SM OVC043 05/01 A3001 RMK AO2 PK WND 06031/0031 SLP170 T00500011

Get Severe Weather Alerts

Thanks for signing up!

Be on the lookout for a verification email in your inbox.

You'll start receiving the daily forecast at 8 AM.

×

10-Day Weather Forecast

Almanac

Astronomy

Apr. 29, 2017 Rise Set
Actual Time
Civil Twilight
Nautical Twilight
Astronomical Twilight
Moon
Length of Visible Light
Length of Day
Tomorrow will be .
, % of the Moon is Illuminated

Today's Extremes

State Highs State Lows

Community

WunderPhotos

WunderBlog® & News

Nearby

Air Quality

  Air Quality AQ Index Pollutant
Not available.

Snow Depth

Station Depth Elevation

Earthquake Activity

City Distance Mag. Time & Date
Minimum magnitude displayed is 2.5.

Coastal Water Temperatures

Place Temperature

Stations

Nearby Weather Stations

Station Location Temp. Windchill Dew Point Humidity Wind Precip. Elev Updated Type
                   

Watches & Warnings

There are currently no watches in effect.